Unionville, Louisiana
Current Conditions -  °F | °C
As of 6:15 AM on Saturday 25 Oct 2014 (Local Time) from KRSN Reporting Station
Clear Clear  
Wind Chill: 12°   Ceiling: Unl
Heat Index: 12°   Visibility: 10mi
Dew Point: 11°   Wind: 0mph
Humidity: 95%   Direction: NA
Pressure: 30.18"   Gusts: NA
Location:  32.6988°N, 92.6981°W
Report Text: KRSN 251115Z AUTO 00000KT 10SM CLR 12/11 A3018 RMK AO2 T01160109
Loading
Personal Weather Stations






























Interactive Weather Map
Tropical Storm Tracking
New forecast layout! Learn more

10-Day Weather Forecast

Advertisements
Track Severe Weather on mobile